Página principal
METAR-TAF:

METAR-TAF

Aeroportos :

Aeroporto da Madeira

Funchal, Madeira, Portugal

latitude: 32-41-52N, longitude: 016-46-28W, altura: 59 m

Observação actual do tempo

O boletim foi feito há 37 minutos, às 08:00 UTC
Vento 1 kt com direcção variável
Temperatura 23°C
Humidade 69%
Pressão 1017 hPa
Visibilidade 10 km ou mais
Poucas nuvensa uma altura de 1600 ft

METAR: LPMA 200800Z VRB01KT 9999 FEW016 23/17 Q1017

Hora: 09:37 (08:37 UTC)

Previsão

O boletim foi feito há 3 horas e 37 minutos, às 05:00 UTC
Previsão válida de 20 às 06 UTC a 21 às 06 UTC
Vento 5 kt com direcção variável
Visibilidade 10 km ou mais
Poucas nuvensa uma altura de 1800 ft
Tornando-se
de 20 às 08 UTC a 20 às 11 UTC
Vento 10 kt de norte
Tornando-se
de 20 às 21 UTC a 20 às 23 UTC
Vento 5 kt com direcção variável

TAF: LPMA 200500Z 2006/2106 VRB05KT 9999 FEW018 BECMG 2008/2011 35010KT BECMG 2021/2023 VRB05KT

Observações e previsões do tempo de mais de 4000 aeroportos (mensagens METAR e TAF).

As estações disponíveis são os pontos amarelos e vermelhos sobre o mapa.

Mova o rato sobre o mapa para ver o nome da estação.

Depois clique no ponto para visualizar as observações e previsões meteorológicas.

Para alterar o mapa : clique nos botões verdes com uma cruz preta para aumentar o zoom; no botão verde com uma pitada de zoom; ou nas setas verdes para mapas adjacentes.


METAR-TAF: